Time;durP1;ratioP1;P1;durP2;ratioP2;P2;SDS_P1;SDS_P2;PMS_P1;PMS_P2;Temp;Humidity;BMP_temperature;BMP_pressure;BME280_temperature;BME280_humidity;BME280_pressure;Samples;Min_cycle;Max_cycle;Signal;HPM_P1;HPM_P2
2022/06/27 00:00:25;;;;;;;5.43;4.10;;;22.90;99.90;;;;;;5089150;28;20214;-66
2022/06/27 00:02:53;;;;;;;5.60;4.20;;;22.90;99.90;;;;;;5091491;28;20635;-68
2022/06/27 00:05:20;;;;;;;5.60;4.07;;;22.90;99.90;;;;;;5090684;28;20216;-67
2022/06/27 00:07:47;;;;;;;4.73;4.00;;;22.80;99.90;;;;;;5090628;28;20612;-67
2022/06/27 00:10:14;;;;;;;4.90;4.00;;;22.80;99.90;;;;;;5091799;28;20207;-65
2022/06/27 00:12:41;;;;;;;6.20;4.40;;;22.80;99.90;;;;;;5091116;28;20252;-66
2022/06/27 00:15:10;;;;;;;9.17;4.53;;;22.70;99.90;;;;;;5091385;28;20208;-66
2022/06/27 00:17:38;;;;;;;4.97;4.10;;;22.70;99.90;;;;;;5090291;28;20252;-67
2022/06/27 00:20:07;;;;;;;5.83;4.30;;;22.70;99.90;;;;;;5089843;28;20273;-66
2022/06/27 00:22:34;;;;;;;5.03;4.00;;;22.70;99.90;;;;;;5091202;28;20246;-67
2022/06/27 00:25:01;;;;;;;5.73;4.43;;;22.60;99.90;;;;;;5089784;28;20206;-67
2022/06/27 00:27:27;;;;;;;5.10;4.50;;;22.60;99.90;;;;;;5094136;28;20204;-66
2022/06/27 00:29:54;;;;;;;5.33;4.53;;;22.60;99.90;;;;;;5095329;28;20205;-68
2022/06/27 00:32:23;;;;;;;4.60;3.93;;;22.60;99.90;;;;;;5094335;28;20586;-66
2022/06/27 00:34:49;;;;;;;5.77;4.20;;;22.50;99.90;;;;;;5093757;28;20199;-69
2022/06/27 00:37:18;;;;;;;4.67;4.10;;;22.50;99.90;;;;;;5095410;28;20200;-67
2022/06/27 00:39:44;;;;;;;5.77;4.13;;;22.40;99.90;;;;;;5095303;28;20238;-66
2022/06/27 00:42:11;;;;;;;5.53;4.27;;;22.40;99.90;;;;;;5095709;28;20188;-66
2022/06/27 00:44:40;;;;;;;5.47;4.20;;;22.40;99.90;;;;;;5094516;28;20207;-66
2022/06/27 00:47:09;;;;;;;5.00;4.17;;;22.40;99.90;;;;;;5093151;28;20204;-67
2022/06/27 00:49:36;;;;;;;6.47;4.63;;;22.40;99.90;;;;;;5093485;28;20208;-67
2022/06/27 00:52:04;;;;;;;4.63;4.13;;;22.40;99.90;;;;;;5093028;28;20645;-66
2022/06/27 00:54:33;;;;;;;4.70;4.20;;;22.30;99.90;;;;;;5094919;28;20216;-66
2022/06/27 00:57:00;;;;;;;5.13;4.07;;;22.30;99.90;;;;;;5094475;28;20204;-69
2022/06/27 00:59:27;;;;;;;4.40;3.80;;;22.30;99.90;;;;;;5094755;28;20203;-65
2022/06/27 01:01:54;;;;;;;6.37;3.80;;;22.30;99.90;;;;;;5095427;28;20549;-66
2022/06/27 01:04:21;;;;;;;4.23;3.83;;;22.30;99.90;;;;;;5094025;28;20214;-66
2022/06/27 01:06:49;;;;;;;5.27;4.27;;;22.30;99.90;;;;;;5092333;28;20204;-67
2022/06/27 01:09:16;;;;;;;4.93;4.10;;;22.20;99.90;;;;;;5094862;28;20204;-67
2022/06/27 01:11:44;;;;;;;4.60;4.13;;;22.20;99.90;;;;;;5094522;28;20215;-67
2022/06/27 01:14:12;;;;;;;7.07;4.00;;;22.20;99.90;;;;;;5093564;28;20228;-67
2022/06/27 01:16:39;;;;;;;5.23;4.17;;;22.20;99.90;;;;;;5092247;28;20228;-67
2022/06/27 01:19:09;;;;;;;5.07;3.93;;;22.20;99.90;;;;;;5092053;28;20204;-68
2022/06/27 01:21:41;;;;;;;5.73;4.23;;;22.20;99.90;;;;;;5094907;28;20196;-65
2022/06/27 01:24:09;;;;;;;4.43;3.97;;;22.20;99.90;;;;;;5094773;28;20192;-66
2022/06/27 01:26:36;;;;;;;4.53;3.93;;;22.20;99.90;;;;;;5093281;28;20206;-67
2022/06/27 01:29:04;;;;;;;5.57;4.03;;;22.20;99.90;;;;;;5093133;28;20211;-68
2022/06/27 01:31:31;;;;;;;6.23;4.30;;;22.20;99.90;;;;;;5084048;28;20263;-66
2022/06/27 01:33:58;;;;;;;6.10;4.30;;;22.10;99.90;;;;;;5074183;28;20231;-66
2022/06/27 01:36:43;;;;;;;5.10;3.93;;;22.20;99.90;;;;;;5081155;28;20688;-67
2022/06/27 01:39:14;;;;;;;4.50;4.10;;;22.10;99.90;;;;;;5091689;28;20232;-68
2022/06/27 01:41:42;;;;;;;4.37;3.80;;;22.10;99.90;;;;;;5094159;28;20324;-69
2022/06/27 01:44:09;;;;;;;5.07;3.63;;;22.10;99.90;;;;;;5094122;28;20236;-66
2022/06/27 01:46:42;;;;;;;4.90;4.00;;;22.10;99.90;;;;;;5094454;28;20760;-66
2022/06/27 01:49:09;;;;;;;4.87;4.10;;;22.10;99.90;;;;;;5094083;28;20207;-66
2022/06/27 01:51:37;;;;;;;5.17;4.33;;;22.10;99.90;;;;;;5090471;28;20294;-67
2022/06/27 01:54:04;;;;;;;5.40;4.53;;;22.10;99.90;;;;;;5094424;28;20226;-68
2022/06/27 01:56:33;;;;;;;4.87;4.33;;;22.00;99.90;;;;;;5094282;28;20694;-70
2022/06/27 01:58:59;;;;;;;4.57;4.10;;;22.00;99.90;;;;;;5094353;28;20557;-71
2022/06/27 02:01:27;;;;;;;6.33;4.97;;;21.90;99.90;;;;;;5093768;28;20212;-68
2022/06/27 02:03:55;;;;;;;6.40;4.90;;;21.90;99.90;;;;;;5093314;28;20220;-67
2022/06/27 02:06:22;;;;;;;5.57;4.70;;;21.90;99.90;;;;;;5092263;28;20687;-67
2022/06/27 02:08:52;;;;;;;5.83;4.73;;;21.90;99.90;;;;;;5093658;28;20239;-66
2022/06/27 02:11:19;;;;;;;5.27;4.77;;;21.80;99.90;;;;;;5093427;28;20291;-66
2022/06/27 02:13:48;;;;;;;5.83;4.83;;;21.80;99.90;;;;;;5091339;28;20219;-66
2022/06/27 02:16:16;;;;;;;5.27;4.70;;;21.90;99.90;;;;;;5092548;28;20228;-65
2022/06/27 02:18:44;;;;;;;4.77;4.27;;;21.90;99.90;;;;;;5092515;28;20227;-67
2022/06/27 02:21:12;;;;;;;4.70;4.20;;;21.90;99.90;;;;;;5093419;28;20237;-67
2022/06/27 02:23:39;;;;;;;5.13;4.60;;;21.90;99.90;;;;;;5093395;28;20212;-67
2022/06/27 02:26:08;;;;;;;9.87;4.90;;;21.90;99.90;;;;;;5090320;28;20204;-67
2022/06/27 02:28:35;;;;;;;5.73;4.80;;;21.80;99.90;;;;;;5081987;28;20208;-67
2022/06/27 02:31:04;;;;;;;5.73;4.33;;;21.90;99.90;;;;;;5093734;28;20236;-67
2022/06/27 02:33:35;;;;;;;11.53;5.13;;;21.90;99.90;;;;;;5093261;28;20612;-66
2022/06/27 02:36:04;;;;;;;5.60;4.57;;;21.90;99.90;;;;;;5092426;28;20204;-67
2022/06/27 02:38:30;;;;;;;7.10;4.70;;;22.00;99.90;;;;;;5091304;28;20211;-66
2022/06/27 02:40:59;;;;;;;5.80;4.90;;;22.00;99.90;;;;;;5093059;28;20236;-71
2022/06/27 02:43:29;;;;;;;5.83;4.63;;;22.00;99.90;;;;;;5092821;28;20254;-68
2022/06/27 02:45:56;;;;;;;8.37;4.60;;;22.10;99.90;;;;;;5093418;28;20207;-68
2022/06/27 02:48:26;;;;;;;5.97;4.70;;;22.20;99.90;;;;;;5092775;28;20208;-71
2022/06/27 02:50:56;;;;;;;6.10;4.80;;;22.20;99.90;;;;;;5091987;28;20733;-68
2022/06/27 02:53:27;;;;;;;5.77;4.70;;;22.30;99.90;;;;;;5091854;28;20645;-69
2022/06/27 02:55:55;;;;;;;10.43;4.77;;;22.30;99.90;;;;;;5093198;28;20189;-67
2022/06/27 02:58:33;;;;;;;5.70;4.30;;;22.30;99.90;;;;;;5092496;28;20208;-66
2022/06/27 03:01:03;;;;;;;8.20;4.93;;;22.40;99.90;;;;;;5092704;28;20244;-67
2022/06/27 03:03:33;;;;;;;5.60;4.63;;;22.40;99.90;;;;;;5091905;28;20557;-66
2022/06/27 03:06:02;;;;;;;5.70;4.43;;;22.40;99.90;;;;;;5091578;28;20224;-69
2022/06/27 03:08:38;;;;;;;5.53;4.70;;;22.40;99.90;;;;;;5092187;28;20208;-68
2022/06/27 03:11:05;;;;;;;5.93;5.10;;;22.40;99.90;;;;;;5084178;28;20236;-68
2022/06/27 03:13:32;;;;;;;6.20;4.80;;;22.40;99.90;;;;;;5072323;28;20257;-68
2022/06/27 03:16:00;;;;;;;5.93;4.67;;;22.40;99.90;;;;;;5086414;28;20201;-68
2022/06/27 03:18:27;;;;;;;6.77;4.80;;;22.50;99.90;;;;;;5090968;28;20947;-68
2022/06/27 03:20:55;;;;;;;5.80;4.30;;;22.50;99.90;;;;;;5092065;28;20212;-70
2022/06/27 03:23:22;;;;;;;5.80;4.60;;;22.60;99.90;;;;;;5092892;28;20208;-69
2022/06/27 03:25:49;;;;;;;6.17;4.67;;;22.60;99.90;;;;;;5092696;28;20562;-71
2022/06/27 03:28:16;;;;;;;5.07;4.23;;;22.60;99.90;;;;;;5085431;28;20242;-69
2022/06/27 03:30:42;;;;;;;5.97;4.57;;;22.70;99.90;;;;;;5084799;28;20220;-68
2022/06/27 03:33:10;;;;;;;6.83;4.67;;;22.80;99.90;;;;;;5089021;28;20225;-69
2022/06/27 03:35:36;;;;;;;6.57;4.63;;;22.80;99.90;;;;;;5090253;28;20201;-67
2022/06/27 03:38:05;;;;;;;6.73;4.60;;;22.80;99.90;;;;;;5085124;28;20222;-68
2022/06/27 03:40:32;;;;;;;8.10;5.83;;;22.80;99.90;;;;;;5089280;28;20230;-70
2022/06/27 03:42:59;;;;;;;8.43;6.23;;;22.90;99.90;;;;;;5071881;28;20690;-67
2022/06/27 03:45:25;;;;;;;7.33;4.87;;;23.00;99.90;;;;;;5071891;28;20208;-67
2022/06/27 03:47:54;;;;;;;9.97;5.77;;;23.10;99.90;;;;;;5078254;28;20203;-69
2022/06/27 03:50:21;;;;;;;10.03;8.10;;;23.10;99.90;;;;;;5091169;28;20226;-68
2022/06/27 03:52:48;;;;;;;6.17;4.97;;;23.20;99.90;;;;;;5092052;28;20204;-67
2022/06/27 03:55:17;;;;;;;6.50;5.00;;;23.20;99.90;;;;;;5091741;28;20667;-68
2022/06/27 03:57:48;;;;;;;7.77;4.50;;;23.30;99.90;;;;;;5091185;28;20582;-66
2022/06/27 04:00:15;;;;;;;5.67;4.23;;;23.40;99.90;;;;;;5091225;28;20191;-66
2022/06/27 04:02:42;;;;;;;5.63;4.60;;;23.40;99.90;;;;;;5086659;28;20204;-67
2022/06/27 04:05:09;;;;;;;5.87;4.20;;;23.50;99.90;;;;;;5090799;28;20212;-67
2022/06/27 04:07:38;;;;;;;5.63;4.00;;;23.50;99.90;;;;;;5091886;28;20264;-66
2022/06/27 04:10:06;;;;;;;9.77;4.30;;;23.60;99.90;;;;;;5091667;28;20305;-66
2022/06/27 04:12:35;;;;;;;4.87;4.10;;;23.60;99.90;;;;;;5091615;28;20217;-66
2022/06/27 04:15:02;;;;;;;6.20;4.90;;;23.70;99.90;;;;;;5090523;28;20293;-66
2022/06/27 04:17:29;;;;;;;5.13;4.40;;;23.80;99.90;;;;;;5091879;28;20261;-66
2022/06/27 04:19:56;;;;;;;6.40;4.33;;;23.80;99.90;;;;;;5089270;28;20217;-66
2022/06/27 04:22:23;;;;;;;4.63;3.67;;;23.90;99.90;;;;;;5091375;28;20216;-67
2022/06/27 04:24:50;;;;;;;5.77;4.10;;;24.00;99.90;;;;;;5091173;28;20209;-66
2022/06/27 04:27:19;;;;;;;4.57;3.90;;;24.10;99.90;;;;;;5088995;28;20207;-66
2022/06/27 04:29:49;;;;;;;4.37;3.93;;;24.10;99.90;;;;;;5091338;28;20214;-67
2022/06/27 04:32:16;;;;;;;4.37;3.90;;;24.20;99.90;;;;;;5091438;28;20255;-68
2022/06/27 04:34:43;;;;;;;6.37;4.43;;;24.30;99.90;;;;;;5090371;28;20678;-66
2022/06/27 04:37:10;;;;;;;4.90;3.90;;;24.30;99.90;;;;;;5090734;28;20566;-66
2022/06/27 04:39:37;;;;;;;5.77;4.23;;;24.30;99.90;;;;;;5090063;28;20280;-66
2022/06/27 04:42:06;;;;;;;5.23;3.63;;;24.30;99.90;;;;;;5090354;28;20246;-66
2022/06/27 04:44:34;;;;;;;11.60;3.97;;;24.30;99.90;;;;;;5091246;28;20237;-67
2022/06/27 04:47:06;;;;;;;8.43;5.20;;;24.40;99.90;;;;;;5090873;28;20200;-67
2022/06/27 04:49:34;;;;;;;6.97;4.70;;;24.40;99.90;;;;;;5088602;28;20206;-66
2022/06/27 04:52:01;;;;;;;8.90;4.50;;;24.50;99.90;;;;;;5089894;28;20203;-66
2022/06/27 04:54:28;;;;;;;6.07;4.50;;;24.50;99.90;;;;;;5089985;28;20229;-66
2022/06/27 04:56:55;;;;;;;9.00;4.90;;;24.50;99.90;;;;;;5090185;28;20210;-67
2022/06/27 04:59:23;;;;;;;10.20;5.70;;;24.60;99.90;;;;;;5084578;28;20545;-67
2022/06/27 05:01:50;;;;;;;8.27;4.93;;;24.70;99.90;;;;;;5090918;28;20214;-68
2022/06/27 05:04:19;;;;;;;9.30;5.13;;;24.70;99.90;;;;;;5090353;28;20221;-68
2022/06/27 05:06:46;;;;;;;12.47;5.37;;;24.80;99.90;;;;;;5090754;28;20298;-67
2022/06/27 05:09:13;;;;;;;8.30;4.70;;;24.90;99.90;;;;;;5080760;28;20206;-67
2022/06/27 05:11:40;;;;;;;8.67;5.33;;;25.00;99.90;;;;;;5078282;28;20203;-70
2022/06/27 05:14:08;;;;;;;9.20;6.50;;;25.10;99.90;;;;;;5085207;28;20674;-66
2022/06/27 05:16:35;;;;;;;11.75;7.13;;;25.10;99.90;;;;;;5093761;28;20289;-66
2022/06/27 05:19:02;;;;;;;11.25;6.95;;;25.20;99.90;;;;;;5094406;28;20318;-67
2022/06/27 05:21:30;;;;;;;11.90;7.13;;;25.30;99.90;;;;;;5094670;28;20691;-66
2022/06/27 05:23:57;;;;;;;11.23;5.90;;;25.40;99.90;;;;;;5094582;28;20671;-67
2022/06/27 05:26:24;;;;;;;9.70;5.28;;;25.40;99.90;;;;;;5092297;28;20203;-67
2022/06/27 05:28:52;;;;;;;7.78;4.40;;;25.40;99.90;;;;;;5093394;28;20220;-70
2022/06/27 05:31:18;;;;;;;5.50;4.10;;;25.50;99.90;;;;;;5094345;28;20208;-68
2022/06/27 05:33:45;;;;;;;7.60;4.35;;;25.50;99.90;;;;;;5094077;28;20580;-67
2022/06/27 05:36:12;;;;;;;4.82;4.00;;;25.70;99.90;;;;;;5094521;28;20218;-67
2022/06/27 05:38:41;;;;;;;5.20;3.85;;;25.70;99.90;;;;;;5091259;28;20245;-67
2022/06/27 05:41:07;;;;;;;6.45;3.80;;;25.80;99.90;;;;;;5085256;28;20237;-67
2022/06/27 05:43:34;;;;;;;6.53;4.10;;;25.90;99.90;;;;;;5084887;28;20598;-68
2022/06/27 05:46:02;;;;;;;5.85;4.30;;;26.00;99.90;;;;;;5081630;28;20327;-66
2022/06/27 05:48:29;;;;;;;5.15;4.10;;;26.00;99.90;;;;;;5085047;28;20546;-67
2022/06/27 05:50:57;;;;;;;10.23;4.95;;;26.00;99.90;;;;;;5085025;28;20215;-68
2022/06/27 05:53:24;;;;;;;8.73;4.10;;;26.20;99.90;;;;;;5080803;28;20210;-68
2022/06/27 05:55:53;;;;;;;6.50;4.20;;;26.20;99.90;;;;;;5081195;28;20210;-67
2022/06/27 05:58:19;;;;;;;6.30;4.40;;;26.20;99.90;;;;;;5083233;28;20733;-66
2022/06/27 06:00:46;;;;;;;8.20;4.30;;;26.40;99.90;;;;;;5082380;28;20318;-67
2022/06/27 06:03:13;;;;;;;5.40;4.05;;;26.40;99.90;;;;;;5081369;28;20246;-68
2022/06/27 06:05:41;;;;;;;5.82;4.30;;;26.40;99.90;;;;;;5083986;28;20195;-66
2022/06/27 06:08:08;;;;;;;7.80;4.63;;;26.40;99.90;;;;;;5081631;28;20258;-66
2022/06/27 06:10:35;;;;;;;7.55;4.63;;;26.50;99.90;;;;;;5086688;28;20210;-69
2022/06/27 06:13:04;;;;;;;5.93;4.20;;;26.50;99.90;;;;;;5093374;28;20207;-68
2022/06/27 06:15:31;;;;;;;7.05;4.38;;;26.50;99.90;;;;;;5093457;28;20229;-68
2022/06/27 06:18:01;;;;;;;8.93;4.75;;;26.60;99.90;;;;;;5093697;28;20207;-67
2022/06/27 06:20:28;;;;;;;6.30;4.57;;;26.50;99.90;;;;;;5092637;28;20664;-68
2022/06/27 06:22:55;;;;;;;6.70;4.78;;;26.50;99.90;;;;;;5089499;28;20213;-67
2022/06/27 06:25:23;;;;;;;6.95;4.15;;;26.50;99.90;;;;;;5081603;28;20659;-67
2022/06/27 06:27:50;;;;;;;8.13;4.38;;;26.40;99.90;;;;;;5080720;28;20767;-66
2022/06/27 06:30:19;;;;;;;7.18;4.40;;;26.40;99.90;;;;;;5082300;28;20580;-67
2022/06/27 06:32:47;;;;;;;5.50;4.03;;;26.30;99.90;;;;;;5083993;28;20208;-67
2022/06/27 06:35:15;;;;;;;7.15;4.15;;;26.30;99.90;;;;;;5080790;28;20217;-68
2022/06/27 06:37:42;;;;;;;5.22;4.60;;;26.30;99.90;;;;;;5081501;28;20199;-67
2022/06/27 06:40:10;;;;;;;7.70;5.47;;;26.40;99.90;;;;;;5082710;28;20609;-69
2022/06/27 06:42:37;;;;;;;5.32;4.10;;;26.40;99.90;;;;;;5083869;28;20259;-69
2022/06/27 06:45:05;;;;;;;6.70;4.07;;;26.40;99.90;;;;;;5084830;28;20207;-66
2022/06/27 06:47:33;;;;;;;7.50;3.97;;;26.50;99.90;;;;;;5082546;28;20202;-69
2022/06/27 06:50:01;;;;;;;6.68;4.32;;;26.50;99.90;;;;;;5081172;28;20203;-68
2022/06/27 06:52:30;;;;;;;6.90;4.30;;;26.60;99.90;;;;;;5080485;28;20301;-67
2022/06/27 06:54:57;;;;;;;6.78;4.00;;;26.70;99.90;;;;;;5083804;28;20230;-69
2022/06/27 06:57:24;;;;;;;8.18;4.20;;;26.80;99.90;;;;;;5080729;28;20621;-69
2022/06/27 06:59:51;;;;;;;5.15;3.80;;;26.80;99.90;;;;;;5084773;28;20586;-70
2022/06/27 07:02:17;;;;;;;6.63;3.90;;;26.80;99.90;;;;;;5078355;28;20205;-69
2022/06/27 07:04:47;;;;;;;5.35;3.70;;;26.90;99.90;;;;;;5081691;28;20725;-68
2022/06/27 07:07:17;;;;;;;6.82;4.32;;;27.00;99.90;;;;;;5082993;28;20213;-68
2022/06/27 07:09:44;;;;;;;9.65;3.90;;;27.10;99.90;;;;;;5079871;28;20198;-68
2022/06/27 07:12:11;;;;;;;6.57;3.70;;;27.10;99.90;;;;;;5082204;28;20212;-69
2022/06/27 07:14:38;;;;;;;5.35;3.78;;;27.20;99.90;;;;;;5087374;28;20317;-69
2022/06/27 07:17:05;;;;;;;4.95;3.60;;;27.20;99.90;;;;;;5090683;28;20545;-68
2022/06/27 07:19:32;;;;;;;4.88;4.07;;;27.30;99.90;;;;;;5087310;28;20236;-68
2022/06/27 07:22:01;;;;;;;15.93;4.65;;;27.40;99.90;;;;;;5074330;28;20212;-68
2022/06/27 07:24:28;;;;;;;6.55;3.53;;;27.40;99.90;;;;;;5077257;28;20309;-70
2022/06/27 07:26:55;;;;;;;5.70;3.40;;;27.50;99.90;;;;;;5080332;28;20204;-70
2022/06/27 07:29:22;;;;;;;8.75;4.00;;;27.50;99.90;;;;;;5091338;28;20202;-68
2022/06/27 07:31:49;;;;;;;4.70;3.63;;;27.60;99.90;;;;;;5092207;28;20293;-70
2022/06/27 07:34:19;;;;;;;6.18;3.53;;;27.60;99.90;;;;;;5089390;28;20204;-67
2022/06/27 07:36:46;;;;;;;6.38;3.70;;;27.70;99.90;;;;;;5089633;28;20721;-69
2022/06/27 07:39:14;;;;;;;5.45;3.90;;;27.70;99.90;;;;;;5091359;28;20205;-66
2022/06/27 07:41:44;;;;;;;6.57;3.80;;;27.80;99.90;;;;;;5090552;28;20599;-67
2022/06/27 07:44:11;;;;;;;9.55;4.07;;;27.90;99.90;;;;;;5091766;28;20630;-69
2022/06/27 07:46:38;;;;;;;5.55;3.40;;;27.90;99.90;;;;;;5091488;28;20236;-67
2022/06/27 07:49:05;;;;;;;6.35;3.53;;;28.00;99.90;;;;;;5086094;28;20197;-69
2022/06/27 07:51:32;;;;;;;5.25;3.20;;;28.10;99.90;;;;;;5086551;28;20209;-67
2022/06/27 07:53:59;;;;;;;8.45;2.95;;;28.20;99.90;;;;;;5089633;28;20210;-68
2022/06/27 07:56:27;;;;;;;8.77;3.40;;;28.20;99.90;;;;;;5091473;28;20587;-68
2022/06/27 07:58:54;;;;;;;6.18;3.05;;;28.30;99.90;;;;;;5090030;28;20202;-68
2022/06/27 08:01:22;;;;;;;3.40;2.42;;;28.30;99.90;;;;;;5087604;28;20223;-69
2022/06/27 08:03:49;;;;;;;6.90;2.75;;;28.30;99.90;;;;;;5091355;28;20212;-69
2022/06/27 08:06:18;;;;;;;5.70;2.78;;;28.40;99.90;;;;;;5091455;28;20202;-67
2022/06/27 08:08:47;;;;;;;8.30;3.80;;;28.50;99.90;;;;;;5091279;28;20214;-69
2022/06/27 08:11:16;;;;;;;9.07;3.60;;;28.50;99.90;;;;;;5091333;28;20226;-68
2022/06/27 08:13:47;;;;;;;7.82;3.60;;;28.60;99.90;;;;;;5090905;28;20695;-70
2022/06/27 08:16:15;;;;;;;7.40;3.67;;;28.60;99.90;;;;;;5088864;28;20215;-70
2022/06/27 08:18:44;;;;;;;6.13;3.42;;;28.70;99.90;;;;;;5090651;28;20211;-66
2022/06/27 08:21:13;;;;;;;6.35;3.65;;;28.70;99.90;;;;;;5091253;28;20204;-67
2022/06/27 08:23:40;;;;;;;9.02;3.85;;;28.80;99.90;;;;;;5090965;28;20211;-70
2022/06/27 08:26:08;;;;;;;6.57;3.95;;;28.80;99.90;;;;;;5083392;28;20201;-70
2022/06/27 08:28:36;;;;;;;12.18;4.35;;;28.70;99.90;;;;;;5090116;28;20290;-69
2022/06/27 08:31:05;;;;;;;5.75;3.67;;;28.70;99.90;;;;;;5086261;28;20226;-70
2022/06/27 08:33:32;;;;;;;8.60;4.00;;;28.70;99.90;;;;;;5089559;28;20218;-69
2022/06/27 08:36:01;;;;;;;5.45;4.10;;;28.80;99.90;;;;;;5091504;28;20314;-71
2022/06/27 08:38:28;;;;;;;7.45;4.18;;;28.90;99.90;;;;;;5089815;28;20645;-69
2022/06/27 08:40:55;;;;;;;10.02;3.58;;;29.00;99.90;;;;;;5090741;28;20239;-71
2022/06/27 08:43:22;;;;;;;5.15;3.60;;;29.10;99.90;;;;;;5091036;28;20203;-69
2022/06/27 08:45:51;;;;;;;4.88;3.88;;;29.20;99.90;;;;;;5089145;28;20211;-66
2022/06/27 08:48:21;;;;;;;5.63;3.60;;;29.20;99.90;;;;;;5093474;28;20291;-69
2022/06/27 08:50:50;;;;;;;4.18;3.75;;;29.20;99.90;;;;;;5094043;28;20204;-68
2022/06/27 08:53:17;;;;;;;8.13;3.47;;;29.10;99.90;;;;;;5095079;28;20660;-67
2022/06/27 08:55:46;;;;;;;5.15;3.45;;;29.00;99.40;;;;;;5094298;28;20272;-68
2022/06/27 08:58:13;;;;;;;5.60;3.40;;;28.90;99.90;;;;;;5094633;28;20239;-67
2022/06/27 09:00:45;;;;;;;5.78;3.83;;;29.00;99.60;;;;;;5094860;28;20234;-67
2022/06/27 09:03:13;;;;;;;8.07;3.92;;;29.00;99.90;;;;;;5091780;28;20546;-69
2022/06/27 09:05:42;;;;;;;5.20;3.72;;;29.00;99.90;;;;;;5094610;28;20210;-68
2022/06/27 09:08:10;;;;;;;5.88;4.15;;;29.10;99.90;;;;;;5094830;28;20207;-69
2022/06/27 09:10:39;;;;;;;7.80;3.80;;;29.10;99.90;;;;;;5091075;28;20276;-67
2022/06/27 09:13:09;;;;;;;5.22;3.95;;;29.10;99.90;;;;;;5092314;28;20286;-67
2022/06/27 09:15:53;;;;;;;5.22;3.67;;;29.00;99.90;;;;;;5094881;28;20639;-67
2022/06/27 09:18:23;;;;;;;6.10;4.05;;;29.00;99.90;;;;;;5093211;28;20583;-67
2022/06/27 09:20:54;;;;;;;9.50;4.35;;;29.00;99.90;;;;;;5092859;28;20220;-68
2022/06/27 09:23:35;;;;;;;5.65;3.80;;;29.10;99.90;;;;;;5087566;28;20643;-68
2022/06/27 09:26:04;;;;;;;7.35;3.78;;;29.10;99.90;;;;;;5093755;28;20248;-70
2022/06/27 09:28:47;;;;;;;4.68;3.45;;;29.20;99.90;;;;;;5090499;28;20611;-69
2022/06/27 09:31:30;;;;;;;6.00;3.63;;;29.30;99.90;;;;;;5081559;28;20202;-69
2022/06/27 09:34:04;;;;;;;7.40;3.80;;;29.40;99.90;;;;;;5087957;28;20294;-68
2022/06/27 09:36:34;;;;;;;4.15;3.45;;;29.40;98.90;;;;;;5092055;28;20243;-68
2022/06/27 09:39:02;;;;;;;7.82;3.60;;;29.60;98.60;;;;;;5093764;28;20618;-69
2022/06/27 09:41:30;;;;;;;6.05;3.78;;;29.70;98.50;;;;;;5092653;28;20232;-68
2022/06/27 09:44:06;;;;;;;6.68;3.63;;;29.80;97.70;;;;;;5092819;28;20666;-68
2022/06/27 09:46:38;;;;;;;3.72;3.33;;;29.80;97.80;;;;;;5091727;28;20195;-68
2022/06/27 09:49:12;;;;;;;5.03;3.30;;;29.80;97.80;;;;;;5087162;28;20284;-68
2022/06/27 09:51:41;;;;;;;6.50;3.33;;;29.80;97.40;;;;;;5090781;28;20736;-70
2022/06/27 09:54:11;;;;;;;4.25;3.05;;;29.70;97.80;;;;;;5091520;28;20210;-70
2022/06/27 09:56:41;;;;;;;6.22;3.05;;;29.80;97.60;;;;;;5090568;28;20228;-71
2022/06/27 09:59:09;;;;;;;4.97;3.70;;;29.90;97.30;;;;;;5092819;28;20230;-68
2022/06/27 10:01:37;;;;;;;8.95;3.53;;;29.90;97.70;;;;;;5077088;28;20220;-72
2022/06/27 10:04:05;;;;;;;11.55;3.83;;;29.90;97.80;;;;;;5080228;28;20226;-67
2022/06/27 10:06:32;;;;;;;4.32;3.13;;;29.90;97.30;;;;;;5091837;28;20286;-70
2022/06/27 10:09:02;;;;;;;10.18;3.40;;;29.90;96.70;;;;;;5093974;28;20210;-67
2022/06/27 10:11:29;;;;;;;5.35;3.30;;;30.00;97.20;;;;;;5093436;28;20215;-70
2022/06/27 10:14:21;;;;;;;5.65;3.35;;;30.00;97.50;;;;;;5092672;28;20241;-70
2022/06/27 10:16:56;;;;;;;13.85;3.83;;;30.00;97.60;;;;;;5077740;28;20265;-68
2022/06/27 10:19:25;;;;;;;5.00;3.38;;;29.90;97.60;;;;;;5090298;28;20238;-68
2022/06/27 10:21:52;;;;;;;6.18;3.25;;;29.90;97.90;;;;;;5089228;28;20671;-68
2022/06/27 10:24:35;;;;;;;3.50;3.20;;;29.80;97.90;;;;;;5092750;28;20210;-66
2022/06/27 10:27:08;;;;;;;3.75;3.15;;;29.80;97.70;;;;;;5086031;28;20663;-68
2022/06/27 10:29:44;;;;;;;4.70;3.83;;;29.80;97.90;;;;;;5085733;28;20196;-66
2022/06/27 10:32:47;;;;;;;5.35;2.97;;;29.80;97.90;;;;;;5092023;28;20207;-67
2022/06/27 10:35:16;;;;;;;5.40;3.20;;;29.80;97.20;;;;;;5092644;28;20198;-69
2022/06/27 10:37:47;;;;;;;7.18;2.90;;;29.80;97.20;;;;;;5092885;28;20207;-70
2022/06/27 10:40:52;;;;;;;3.97;3.15;;;29.70;96.40;;;;;;5082414;28;20236;-67
2022/06/27 10:43:44;;;;;;;5.40;3.60;;;29.70;97.00;;;;;;5072358;28;20218;-68
2022/06/27 10:46:52;;;;;;;6.22;3.72;;;29.70;97.60;;;;;;5085393;28;20567;-71
2022/06/27 10:49:24;;;;;;;5.40;3.60;;;29.80;97.90;;;;;;5092193;28;20619;-68
2022/06/27 10:51:52;;;;;;;7.43;3.33;;;30.00;97.50;;;;;;5092292;28;20306;-68
2022/06/27 10:54:20;;;;;;;4.80;3.50;;;30.20;97.20;;;;;;5087313;28;20246;-68
2022/06/27 10:56:49;;;;;;;4.82;3.33;;;30.40;97.70;;;;;;5091946;28;20606;-69
2022/06/27 10:59:59;;;;;;;6.68;3.63;;;30.50;97.00;;;;;;5092600;28;20303;-70
2022/06/27 11:02:33;;;;;;;7.93;3.45;;;30.50;96.60;;;;;;5092295;28;20249;-69
2022/06/27 11:05:01;;;;;;;4.88;3.33;;;30.60;96.10;;;;;;5091491;28;20223;-69
2022/06/27 11:07:29;;;;;;;9.77;3.60;;;30.60;95.70;;;;;;5091230;28;20193;-69
2022/06/27 11:09:56;;;;;;;5.35;3.60;;;30.60;95.70;;;;;;5085482;28;20289;-68
2022/06/27 11:12:33;;;;;;;6.63;3.30;;;30.50;94.90;;;;;;5092516;28;20286;-69
2022/06/27 11:15:01;;;;;;;7.68;3.28;;;30.40;95.00;;;;;;5092011;28;20269;-67
2022/06/27 11:17:36;;;;;;;6.18;3.40;;;30.40;94.60;;;;;;5091531;28;20227;-69
2022/06/27 11:20:14;;;;;;;4.35;3.10;;;30.20;94.90;;;;;;5088554;28;20290;-68
2022/06/27 11:22:41;;;;;;;6.82;3.10;;;30.20;95.20;;;;;;5088857;28;20280;-68
2022/06/27 11:25:09;;;;;;;4.85;3.22;;;30.10;95.10;;;;;;5092262;28;20210;-70
2022/06/27 11:27:50;;;;;;;9.30;3.40;;;30.10;94.40;;;;;;5079129;28;20196;-71
2022/06/27 11:33:20;;;;;;;10.55;3.20;;;30.10;93.00;;;;;;5089284;28;20195;-68
2022/06/27 11:35:48;;;;;;;4.53;3.15;;;30.10;93.10;;;;;;5076744;28;20318;-69
2022/06/27 11:38:24;;;;;;;4.90;2.67;;;30.10;92.70;;;;;;5092304;28;20705;-69
2022/06/27 11:41:02;;;;;;;5.85;2.97;;;30.20;92.30;;;;;;5086929;28;20231;-68
2022/06/27 11:43:56;;;;;;;4.32;2.85;;;30.20;92.50;;;;;;5081758;28;20212;-70
2022/06/27 11:46:30;;;;;;;5.03;2.80;;;30.30;91.80;;;;;;5080403;28;20282;-68
2022/06/27 11:49:01;;;;;;;26.35;4.32;;;30.30;91.70;;;;;;5077325;28;20374;-68
2022/06/27 11:51:31;;;;;;;3.47;2.50;;;30.30;91.20;;;;;;5085133;28;20294;-69
2022/06/27 11:54:01;;;;;;;7.05;2.75;;;30.30;90.80;;;;;;5075136;28;20199;-68
2022/06/27 11:56:30;;;;;;;4.78;2.70;;;30.20;90.00;;;;;;5080535;28;20238;-69
2022/06/27 13:53:07;;;;;;;4.88;3.00;;;29.80;90.10;;;;;;5107734;27;20529;-68
2022/06/27 13:55:35;;;;;;;5.97;3.05;;;30.50;89.00;;;;;;5088211;28;20645;-68
2022/06/27 13:58:04;;;;;;;4.22;2.90;;;30.50;89.40;;;;;;5088030;28;20231;-71
2022/06/27 14:00:31;;;;;;;8.45;3.60;;;30.60;88.50;;;;;;5087841;28;20641;-69
2022/06/27 14:02:58;;;;;;;4.13;3.20;;;30.60;86.80;;;;;;5089204;28;20295;-71
2022/06/27 14:05:25;;;;;;;4.55;3.53;;;30.60;87.30;;;;;;5088874;28;20208;-68
2022/06/27 14:07:51;;;;;;;12.23;3.80;;;30.60;87.50;;;;;;5088443;28;20200;-71
2022/06/27 14:10:21;;;;;;;6.25;3.35;;;30.60;86.50;;;;;;5088340;28;20203;-72
2022/06/27 14:12:50;;;;;;;4.78;2.88;;;30.60;86.60;;;;;;5088957;28;20646;-69
2022/06/27 14:15:19;;;;;;;3.83;3.33;;;30.60;86.90;;;;;;5088201;28;20637;-69
2022/06/27 14:17:46;;;;;;;4.68;3.30;;;30.60;86.70;;;;;;5088835;28;20204;-68
2022/06/27 14:20:15;;;;;;;3.65;3.10;;;30.60;88.00;;;;;;5088991;28;20204;-68
2022/06/27 14:22:42;;;;;;;5.97;3.40;;;30.70;88.60;;;;;;5088795;28;20661;-70
2022/06/27 14:25:10;;;;;;;6.68;2.97;;;30.70;89.30;;;;;;5087811;28;20215;-69
2022/06/27 14:27:38;;;;;;;4.45;3.10;;;30.70;87.40;;;;;;5087615;28;20204;-71
2022/06/27 14:30:07;;;;;;;4.00;2.95;;;30.60;87.40;;;;;;5088742;28;20211;-73
2022/06/27 14:32:34;;;;;;;5.13;3.08;;;30.60;87.90;;;;;;5088522;28;20749;-72
2022/06/27 14:35:01;;;;;;;6.63;3.63;;;30.60;89.20;;;;;;5088140;28;20287;-70
2022/06/27 14:37:28;;;;;;;8.18;3.67;;;30.60;89.70;;;;;;5088124;28;20295;-72
2022/06/27 14:39:55;;;;;;;5.38;3.90;;;30.50;90.10;;;;;;5088333;28;20208;-69
2022/06/27 14:42:22;;;;;;;7.68;4.03;;;30.40;90.10;;;;;;5088142;28;20251;-70
2022/06/27 14:44:50;;;;;;;7.22;4.45;;;30.40;90.50;;;;;;5087424;28;20204;-70
2022/06/27 14:47:19;;;;;;;7.55;4.82;;;30.30;90.70;;;;;;5088557;28;20247;-71
2022/06/27 14:49:46;;;;;;;5.05;3.50;;;30.20;90.80;;;;;;5088120;28;20211;-70
2022/06/27 14:52:13;;;;;;;5.45;3.90;;;30.20;91.30;;;;;;5097676;28;20240;-69